Palmerston, Canada
Current Conditions -  °F | °C
As of 10:00 PM on Friday 19 Dec 2014 (Local Time) from CYKF Reporting Station
Broken Clouds Broken Clouds  
Wind Chill: 14°   Ceiling: 6000
Heat Index: 21°   Visibility: 9mi
Dew Point: 19°   Wind: 6mph
Humidity: 93%   Direction: 310°NW
Pressure: 30.26"   Gusts: NA
Location:  43.83°N, 80.85°W
Report Text: CYKF 200300Z AUTO 31005KT 9SM BKN060 M06/M07 A3026 RMK SLP264
Loading
Personal Weather Stations






























Interactive Weather Map New forecast layout! Learn more

10-Day Weather Forecast

Advertisements
Track Severe Weather on mobile